createdAt,value
2016-12-29T00:00:03.295Z,17.59
2016-12-29T00:00:43.930Z,17.62
2016-12-29T00:01:24.649Z,17.69
2016-12-29T00:02:05.291Z,17.62
2016-12-29T00:02:45.960Z,17.69
2016-12-29T00:03:26.570Z,17.64
2016-12-29T00:04:07.210Z,17.62
2016-12-29T00:04:47.873Z,17.64
2016-12-29T00:05:28.551Z,17.59
2016-12-29T00:06:09.187Z,17.63
2016-12-29T00:06:49.866Z,17.66
2016-12-29T00:07:30.513Z,17.64
2016-12-29T00:08:11.139Z,17.64
2016-12-29T00:08:51.845Z,17.67
2016-12-29T00:09:32.472Z,17.69
2016-12-29T00:10:13.102Z,17.66
2016-12-29T00:10:53.780Z,17.7
2016-12-29T00:11:34.412Z,17.63
2016-12-29T00:12:15.062Z,17.64
2016-12-29T00:12:55.788Z,17.64
2016-12-29T00:13:36.417Z,17.66
2016-12-29T00:14:17.049Z,17.63
2016-12-29T00:14:57.691Z,17.64
2016-12-29T00:15:38.340Z,17.63
2016-12-29T00:16:18.966Z,17.57
2016-12-29T00:16:59.617Z,17.63
2016-12-29T00:17:40.250Z,17.64
2016-12-29T00:18:20.886Z,17.59
2016-12-29T00:19:01.548Z,17.63
2016-12-29T00:19:42.176Z,17.62
2016-12-29T00:20:22.803Z,17.55
2016-12-29T00:21:03.466Z,17.57
2016-12-29T00:21:44.091Z,17.54
2016-12-29T00:22:24.729Z,17.59
2016-12-29T00:23:05.408Z,17.59
2016-12-29T00:23:46.031Z,17.55
2016-12-29T00:24:26.685Z,17.59
2016-12-29T00:25:07.331Z,17.57
2016-12-29T00:25:47.966Z,17.53
2016-12-29T00:26:28.608Z,17.54
2016-12-29T00:27:09.286Z,17.55
2016-12-29T00:27:49.935Z,17.57
2016-12-29T00:28:30.646Z,17.57
2016-12-29T00:29:11.281Z,17.57
2016-12-29T00:29:51.907Z,17.54
2016-12-29T00:30:32.540Z,17.62
2016-12-29T00:31:13.209Z,17.54
2016-12-29T00:31:53.886Z,17.59
2016-12-29T00:32:34.533Z,17.55
2016-12-29T00:33:15.204Z,17.55
2016-12-29T00:33:55.852Z,17.55
2016-12-29T00:34:36.476Z,17.54
2016-12-29T00:35:17.163Z,17.55
2016-12-29T00:35:57.799Z,17.53
2016-12-29T00:36:38.429Z,17.55
2016-12-29T00:37:19.115Z,17.59
2016-12-29T00:37:59.745Z,17.55
2016-12-29T00:38:40.374Z,17.57
2016-12-29T00:39:21.014Z,17.53
2016-12-29T00:40:01.645Z,17.55
2016-12-29T00:40:42.272Z,17.62
2016-12-29T00:41:22.898Z,17.59
2016-12-29T00:42:03.564Z,17.51
2016-12-29T00:42:44.197Z,17.53
2016-12-29T00:43:24.835Z,17.53
2016-12-29T00:44:05.479Z,17.51
2016-12-29T00:44:46.110Z,17.55
2016-12-29T00:45:26.763Z,17.59
2016-12-29T00:46:07.402Z,17.51
2016-12-29T00:46:48.029Z,17.55
2016-12-29T00:47:28.669Z,17.46
2016-12-29T00:48:09.351Z,17.57
2016-12-29T00:48:49.974Z,17.5
2016-12-29T00:49:30.610Z,17.47
2016-12-29T00:50:11.266Z,17.46
2016-12-29T00:50:51.910Z,17.44
2016-12-29T00:51:32.535Z,17.43
2016-12-29T00:52:13.194Z,17.5
2016-12-29T00:52:53.835Z,17.5
2016-12-29T00:53:34.483Z,17.46
2016-12-29T00:54:15.172Z,17.5
2016-12-29T00:54:55.802Z,17.46
2016-12-29T00:55:36.431Z,17.44
2016-12-29T00:56:17.103Z,17.44
2016-12-29T00:56:57.739Z,17.44
2016-12-29T00:57:38.371Z,17.43
2016-12-29T00:58:19.084Z,17.5
2016-12-29T00:58:59.711Z,17.46
2016-12-29T00:59:40.348Z,17.48
2016-12-29T01:00:21.044Z,17.44
2016-12-29T01:01:01.677Z,17.47
2016-12-29T01:01:42.315Z,17.48
2016-12-29T01:02:22.964Z,17.43
2016-12-29T01:03:03.594Z,17.47
2016-12-29T01:03:44.242Z,17.44
2016-12-29T01:04:24.969Z,17.48
2016-12-29T01:05:05.601Z,17.4
2016-12-29T01:05:46.243Z,17.4
2016-12-29T01:06:26.930Z,17.46
2016-12-29T01:07:07.612Z,17.46
2016-12-29T01:07:48.259Z,17.41
2016-12-29T01:08:28.930Z,17.47
2016-12-29T01:09:09.686Z,17.44
2016-12-29T01:09:50.323Z,17.47
2016-12-29T01:10:30.963Z,17.48
2016-12-29T01:11:11.663Z,17.46
2016-12-29T01:11:52.355Z,17.46
2016-12-29T01:12:32.993Z,17.44
2016-12-29T01:13:13.640Z,17.43
2016-12-29T01:13:54.270Z,17.4
2016-12-29T01:14:34.897Z,17.46
2016-12-29T01:15:15.585Z,17.44
2016-12-29T01:15:56.211Z,17.44
2016-12-29T01:16:36.835Z,17.4
2016-12-29T01:17:17.514Z,17.38
2016-12-29T01:17:58.143Z,17.36
2016-12-29T01:18:38.772Z,17.4
2016-12-29T01:19:19.401Z,17.41
2016-12-29T01:20:00.027Z,17.38
2016-12-29T01:20:40.657Z,17.44
2016-12-29T01:21:21.299Z,17.41
2016-12-29T01:22:01.937Z,17.44
2016-12-29T01:22:42.571Z,17.43
2016-12-29T01:23:23.196Z,17.48
2016-12-29T01:24:03.870Z,17.47
2016-12-29T01:24:44.500Z,17.46
2016-12-29T01:25:25.134Z,17.4
2016-12-29T01:26:05.830Z,17.38
2016-12-29T01:26:46.452Z,17.4
2016-12-29T01:27:27.096Z,17.41
2016-12-29T01:28:07.751Z,17.38
2016-12-29T01:28:48.383Z,17.47
2016-12-29T01:29:29.010Z,17.4
2016-12-29T01:30:09.689Z,17.44
2016-12-29T01:30:50.327Z,17.4
2016-12-29T01:31:30.958Z,17.38
2016-12-29T01:32:11.643Z,17.36
2016-12-29T01:32:52.276Z,17.35
2016-12-29T01:33:32.925Z,17.41
2016-12-29T01:34:13.642Z,17.36
2016-12-29T01:34:54.278Z,17.41
2016-12-29T01:35:34.912Z,17.44
2016-12-29T01:36:15.608Z,17.47
2016-12-29T01:36:56.232Z,17.47
2016-12-29T01:37:36.874Z,17.4
2016-12-29T01:38:17.521Z,17.36
2016-12-29T01:38:58.157Z,17.41
2016-12-29T01:39:38.796Z,17.4
2016-12-29T01:40:19.493Z,17.47
2016-12-29T01:41:00.138Z,17.44
2016-12-29T01:41:40.779Z,17.44
2016-12-29T01:42:21.475Z,17.44
2016-12-29T01:43:02.183Z,17.38
2016-12-29T01:43:42.821Z,17.38
2016-12-29T01:44:23.451Z,17.47
2016-12-29T01:45:04.161Z,17.44
2016-12-29T01:45:44.784Z,17.4
2016-12-29T01:46:25.508Z,17.44
2016-12-29T01:47:06.173Z,17.44
2016-12-29T01:47:46.808Z,17.4
2016-12-29T01:48:27.442Z,17.41
2016-12-29T01:49:08.096Z,17.35
2016-12-29T01:49:48.735Z,17.4
2016-12-29T01:50:29.370Z,17.46
2016-12-29T01:51:10.049Z,17.4
2016-12-29T01:51:50.716Z,17.4
2016-12-29T01:52:31.353Z,17.32
2016-12-29T01:53:12.073Z,17.4
2016-12-29T01:53:52.717Z,17.36
2016-12-29T01:54:33.386Z,17.38
2016-12-29T01:55:14.077Z,17.35
2016-12-29T01:55:54.707Z,17.4
2016-12-29T01:56:35.334Z,17.4
2016-12-29T01:57:16.009Z,17.36
2016-12-29T01:57:56.644Z,17.44
2016-12-29T01:58:37.279Z,17.35
2016-12-29T01:59:17.995Z,17.44
2016-12-29T01:59:58.629Z,17.33
2016-12-29T02:00:39.338Z,17.29
2016-12-29T02:01:19.978Z,17.38
2016-12-29T02:02:00.620Z,17.38
2016-12-29T02:02:41.353Z,17.41
2016-12-29T02:03:21.994Z,17.36
2016-12-29T02:04:02.631Z,17.33
2016-12-29T02:04:43.282Z,17.33
2016-12-29T02:05:23.937Z,17.33
2016-12-29T02:06:04.673Z,17.35
2016-12-29T02:06:45.306Z,17.33
2016-12-29T02:07:25.999Z,17.32
2016-12-29T02:08:06.587Z,17.35
2016-12-29T02:08:47.228Z,17.35
2016-12-29T02:09:27.894Z,17.35
2016-12-29T02:10:08.515Z,17.3
2016-12-29T02:10:49.944Z,17.35
2016-12-29T02:11:30.584Z,17.36
2016-12-29T02:12:11.226Z,17.46
2016-12-29T02:12:51.864Z,17.47
2016-12-29T02:13:32.493Z,17.35
2016-12-29T02:14:13.175Z,17.33
2016-12-29T02:14:53.803Z,17.38
2016-12-29T02:15:34.433Z,17.41
2016-12-29T02:16:16.086Z,17.38
2016-12-29T02:16:56.716Z,17.38
2016-12-29T02:17:37.352Z,17.33
2016-12-29T02:18:18.037Z,17.35
2016-12-29T02:18:58.765Z,17.36
2016-12-29T02:19:39.421Z,17.33
2016-12-29T02:20:20.049Z,17.29
2016-12-29T02:21:00.699Z,17.36
2016-12-29T02:21:41.338Z,17.35
2016-12-29T02:22:21.963Z,17.33
2016-12-29T02:23:02.595Z,17.35
2016-12-29T02:23:43.225Z,17.35
2016-12-29T02:24:23.909Z,17.36
2016-12-29T02:25:04.641Z,17.38
2016-12-29T02:25:45.267Z,17.26
2016-12-29T02:26:25.899Z,17.28
2016-12-29T02:27:06.529Z,17.43
2016-12-29T02:27:47.183Z,17.26
2016-12-29T02:28:27.793Z,17.38
2016-12-29T02:29:08.441Z,17.35
2016-12-29T02:29:49.113Z,17.35
2016-12-29T02:30:29.746Z,17.3
2016-12-29T02:31:10.380Z,17.3
2016-12-29T02:31:51.121Z,17.28
2016-12-29T02:32:31.758Z,17.22
2016-12-29T02:33:12.381Z,17.3
2016-12-29T02:33:53.064Z,17.26
2016-12-29T02:34:33.685Z,17.29
2016-12-29T02:35:14.319Z,17.3
2016-12-29T02:35:54.960Z,17.36
2016-12-29T02:36:35.611Z,17.26
2016-12-29T02:37:16.252Z,17.32
2016-12-29T02:37:56.874Z,17.22
2016-12-29T02:38:37.501Z,17.26
2016-12-29T02:39:18.152Z,17.28
2016-12-29T02:39:58.787Z,17.26
2016-12-29T02:40:39.424Z,17.36
2016-12-29T02:41:20.056Z,17.26
2016-12-29T02:42:00.692Z,17.29
2016-12-29T02:42:41.318Z,17.26
2016-12-29T02:43:21.928Z,17.25
2016-12-29T02:44:02.625Z,17.26
2016-12-29T02:44:43.281Z,17.29
2016-12-29T02:45:23.903Z,17.28
2016-12-29T02:46:04.545Z,17.33
2016-12-29T02:46:45.177Z,17.29
2016-12-29T02:47:25.804Z,17.28
2016-12-29T02:48:06.436Z,17.32
2016-12-29T02:48:47.068Z,17.26
2016-12-29T02:49:27.758Z,17.29
2016-12-29T02:50:08.517Z,17.25
2016-12-29T02:50:49.142Z,17.32
2016-12-29T02:51:29.795Z,17.32
2016-12-29T02:52:10.427Z,17.33
2016-12-29T02:52:51.046Z,17.3
2016-12-29T02:53:31.685Z,17.18
2016-12-29T02:54:12.414Z,17.18
2016-12-29T02:54:53.049Z,17.29
2016-12-29T02:55:33.697Z,17.32
2016-12-29T02:56:14.889Z,17.28
2016-12-29T02:56:55.524Z,17.18
2016-12-29T02:57:36.181Z,17.25
2016-12-29T02:58:16.810Z,17.23
2016-12-29T02:58:57.433Z,17.25
2016-12-29T02:59:38.067Z,17.25
2016-12-29T03:00:18.703Z,17.2
2016-12-29T03:00:59.401Z,17.22
2016-12-29T03:01:40.230Z,17.22
2016-12-29T03:02:20.860Z,17.23
2016-12-29T03:03:01.502Z,17.25
2016-12-29T03:03:42.260Z,17.18
2016-12-29T03:04:23.223Z,17.22
2016-12-29T03:05:03.879Z,17.17
2016-12-29T03:05:44.528Z,17.14
2016-12-29T03:06:25.260Z,17.23
2016-12-29T03:07:06.392Z,17.25
2016-12-29T03:07:47.058Z,17.15
2016-12-29T03:08:27.686Z,17.15
2016-12-29T03:09:08.327Z,17.15
2016-12-29T03:09:49.037Z,17.17
2016-12-29T03:10:29.665Z,17.13
2016-12-29T03:11:10.289Z,17.2
2016-12-29T03:11:50.914Z,17.17
2016-12-29T03:12:31.545Z,17.13
2016-12-29T03:13:12.174Z,17.17
2016-12-29T03:13:52.827Z,17.2
2016-12-29T03:14:33.456Z,17.14
2016-12-29T03:15:14.096Z,17.22
2016-12-29T03:15:54.725Z,17.14
2016-12-29T03:16:35.357Z,17.11
2016-12-29T03:17:15.967Z,17.13
2016-12-29T03:17:56.606Z,17.17
2016-12-29T03:18:37.285Z,17.14
2016-12-29T03:19:17.906Z,17.22
2016-12-29T03:19:58.540Z,17.17
2016-12-29T03:20:39.243Z,17.15
2016-12-29T03:21:19.884Z,17.1
2016-12-29T03:22:00.510Z,17.15
2016-12-29T03:22:41.197Z,17.13
2016-12-29T03:23:21.832Z,17.18
2016-12-29T03:24:02.475Z,17.17
2016-12-29T03:24:43.130Z,17.14
2016-12-29T03:25:23.821Z,17.15
2016-12-29T03:26:04.455Z,17.13
2016-12-29T03:26:45.152Z,17.14
2016-12-29T03:27:25.785Z,17.14
2016-12-29T03:28:06.415Z,17.22
2016-12-29T03:28:47.082Z,17.14
2016-12-29T03:29:27.719Z,17.11
2016-12-29T03:30:08.358Z,17.11
2016-12-29T03:30:49.020Z,17.14
2016-12-29T03:31:29.662Z,17.14
2016-12-29T03:32:10.306Z,17.08
2016-12-29T03:32:51.007Z,17.17
2016-12-29T03:33:31.657Z,17.11
2016-12-29T03:34:12.304Z,17.1
2016-12-29T03:34:52.974Z,17.17
2016-12-29T03:35:33.677Z,17.11
2016-12-29T03:36:14.302Z,17.08
2016-12-29T03:36:54.937Z,17.17
2016-12-29T03:37:36.288Z,17.14
2016-12-29T03:38:17.019Z,17.11
2016-12-29T03:38:57.648Z,17.17
2016-12-29T03:39:38.280Z,17.14
2016-12-29T03:40:18.920Z,17.13
2016-12-29T03:40:59.553Z,17.14
2016-12-29T03:41:40.239Z,17.2
2016-12-29T03:42:20.845Z,17.15
2016-12-29T03:43:01.542Z,17.13
2016-12-29T03:43:42.210Z,17.1
2016-12-29T03:44:22.855Z,17.15
2016-12-29T03:45:03.492Z,17.11
2016-12-29T03:45:44.198Z,17.14
2016-12-29T03:46:24.830Z,17.13
2016-12-29T03:47:05.451Z,17.13
2016-12-29T03:47:46.115Z,17.17
2016-12-29T03:48:26.744Z,17.13
2016-12-29T03:49:07.371Z,17.1
2016-12-29T03:49:47.996Z,17.06
2016-12-29T03:50:28.622Z,17.11
2016-12-29T03:51:09.247Z,17.11
2016-12-29T03:51:49.889Z,17.11
2016-12-29T03:52:30.537Z,17.03
2016-12-29T03:53:11.172Z,17.06
2016-12-29T03:53:51.877Z,17.13
2016-12-29T03:54:32.521Z,17.11
2016-12-29T03:55:13.153Z,17.04
2016-12-29T03:55:53.782Z,17.14
2016-12-29T03:56:34.416Z,17.08
2016-12-29T03:57:15.039Z,17.14
2016-12-29T03:57:55.667Z,17.14
2016-12-29T03:58:36.296Z,17.13
2016-12-29T03:59:16.929Z,17.04
2016-12-29T03:59:57.576Z,17.15
2016-12-29T04:00:38.206Z,17.03
2016-12-29T04:01:18.829Z,17.07
2016-12-29T04:01:59.531Z,17.1
2016-12-29T04:02:40.151Z,17.13
2016-12-29T04:03:20.782Z,17.08
2016-12-29T04:04:01.409Z,17.14
2016-12-29T04:04:42.049Z,17.08
2016-12-29T04:05:22.670Z,17.06
2016-12-29T04:06:03.295Z,17.13
2016-12-29T04:06:43.927Z,17.1
2016-12-29T04:07:24.561Z,17.07
2016-12-29T04:08:07.221Z,17.1
2016-12-29T04:08:47.866Z,17.08
2016-12-29T04:09:28.505Z,17.07
2016-12-29T04:10:09.145Z,17.08
2016-12-29T04:10:49.778Z,17.07
2016-12-29T04:11:30.492Z,17.14
2016-12-29T04:12:11.137Z,17.13
2016-12-29T04:12:51.774Z,17.08
2016-12-29T04:13:32.421Z,17.11
2016-12-29T04:14:13.047Z,17.1
2016-12-29T04:14:53.671Z,17.08
2016-12-29T04:15:34.325Z,17.1
2016-12-29T04:16:14.955Z,17.07
2016-12-29T04:16:55.578Z,17.11
2016-12-29T04:17:36.250Z,17.07
2016-12-29T04:18:16.888Z,17.04
2016-12-29T04:18:57.516Z,17.04
2016-12-29T04:19:38.182Z,17.04
2016-12-29T04:20:18.806Z,17.06
2016-12-29T04:20:59.446Z,17.04
2016-12-29T04:21:40.087Z,17.07
2016-12-29T04:22:20.712Z,17.06
2016-12-29T04:23:01.356Z,17.03
2016-12-29T04:23:41.973Z,17.03
2016-12-29T04:24:22.620Z,17.03
2016-12-29T04:25:03.248Z,17.06
2016-12-29T04:25:43.875Z,17.06
2016-12-29T04:26:24.548Z,17.03
2016-12-29T04:27:05.196Z,17.06
2016-12-29T04:27:45.826Z,17.07
2016-12-29T04:28:26.448Z,17
2016-12-29T04:29:07.080Z,17.04
2016-12-29T04:29:47.713Z,16.96
2016-12-29T04:30:28.357Z,16.98
2016-12-29T04:31:08.982Z,16.99
2016-12-29T04:31:49.641Z,16.99
2016-12-29T04:32:30.277Z,16.98
2016-12-29T04:33:10.911Z,16.99
2016-12-29T04:33:51.534Z,16.99
2016-12-29T04:34:32.172Z,17.03
2016-12-29T04:35:12.798Z,16.96
2016-12-29T04:35:53.431Z,16.98
2016-12-29T04:36:34.061Z,17
2016-12-29T04:37:14.682Z,16.99
2016-12-29T04:37:55.335Z,16.96
2016-12-29T04:38:35.960Z,16.96
2016-12-29T04:39:16.606Z,17.03
2016-12-29T04:39:57.331Z,16.98
2016-12-29T04:40:37.960Z,16.98
2016-12-29T04:41:18.603Z,16.9
2016-12-29T04:41:59.239Z,16.95
2016-12-29T04:42:39.866Z,16.95
2016-12-29T04:43:20.495Z,16.98
2016-12-29T04:44:01.122Z,16.9
2016-12-29T04:44:41.802Z,16.93
2016-12-29T04:45:22.434Z,16.95
2016-12-29T04:46:03.069Z,16.96
2016-12-29T04:46:43.725Z,16.98
2016-12-29T04:47:24.351Z,16.96
2016-12-29T04:48:04.977Z,16.93
2016-12-29T04:48:45.660Z,16.96
2016-12-29T04:49:26.272Z,16.93
2016-12-29T04:50:06.897Z,16.93
2016-12-29T04:50:47.585Z,16.92
2016-12-29T04:51:28.200Z,16.93
2016-12-29T04:52:08.839Z,16.9
2016-12-29T04:52:49.508Z,16.93
2016-12-29T04:53:30.135Z,16.93
2016-12-29T04:54:10.762Z,16.92
2016-12-29T04:54:51.383Z,16.89
2016-12-29T04:55:32.011Z,16.89
2016-12-29T04:56:12.690Z,16.93
2016-12-29T04:56:53.315Z,16.9
2016-12-29T04:57:33.938Z,16.95
2016-12-29T04:58:14.574Z,16.89
2016-12-29T04:58:55.208Z,16.89
2016-12-29T04:59:35.840Z,16.96
2016-12-29T05:00:16.464Z,16.89
2016-12-29T05:00:57.092Z,16.89
2016-12-29T05:01:37.715Z,16.96
2016-12-29T05:02:18.430Z,16.96
2016-12-29T05:02:59.134Z,16.89
2016-12-29T05:03:39.765Z,16.89
2016-12-29T05:04:20.409Z,16.93
2016-12-29T05:05:01.132Z,16.9
2016-12-29T05:05:41.763Z,16.95
2016-12-29T05:06:22.450Z,16.86
2016-12-29T05:07:03.077Z,16.85
2016-12-29T05:07:43.707Z,16.86
2016-12-29T05:08:24.338Z,17
2016-12-29T05:09:05.098Z,16.89
2016-12-29T05:09:45.735Z,16.89
2016-12-29T05:10:26.360Z,16.92
2016-12-29T05:11:07.088Z,16.9
2016-12-29T05:11:47.717Z,16.9
2016-12-29T05:12:28.345Z,16.89
2016-12-29T05:13:08.969Z,16.93
2016-12-29T05:13:49.601Z,16.92
2016-12-29T05:14:30.226Z,16.9
2016-12-29T05:15:10.908Z,16.9
2016-12-29T05:15:51.556Z,16.9
2016-12-29T05:16:32.198Z,16.93
2016-12-29T05:17:12.827Z,16.9
2016-12-29T05:17:53.480Z,16.92
2016-12-29T05:18:34.110Z,16.89
2016-12-29T05:19:14.741Z,16.9
2016-12-29T05:19:55.364Z,16.93
2016-12-29T05:20:35.989Z,16.89
2016-12-29T05:21:16.615Z,16.93
2016-12-29T05:21:57.335Z,16.92
2016-12-29T05:22:37.968Z,16.96
2016-12-29T05:23:18.608Z,16.88
2016-12-29T05:23:59.235Z,16.85
2016-12-29T05:24:39.864Z,16.86
2016-12-29T05:25:20.496Z,16.93
2016-12-29T05:26:01.144Z,16.98
2016-12-29T05:26:41.776Z,16.92
2016-12-29T05:27:22.437Z,16.88
2016-12-29T05:28:03.058Z,16.89
2016-12-29T05:28:43.688Z,16.93
2016-12-29T05:29:24.361Z,16.92
2016-12-29T05:30:04.996Z,16.96
2016-12-29T05:30:45.645Z,16.86
2016-12-29T05:31:26.275Z,16.86
2016-12-29T05:32:07.010Z,16.86
2016-12-29T05:32:47.641Z,16.85
2016-12-29T05:33:28.300Z,16.96
2016-12-29T05:34:08.931Z,16.86
2016-12-29T05:34:49.561Z,16.89
2016-12-29T05:35:30.279Z,16.93
2016-12-29T05:36:10.909Z,16.81
2016-12-29T05:36:51.556Z,16.9
2016-12-29T05:37:32.199Z,16.93
2016-12-29T05:38:12.897Z,16.88
2016-12-29T05:38:53.527Z,16.86
2016-12-29T05:39:34.142Z,16.86
2016-12-29T05:40:14.774Z,16.83
2016-12-29T05:40:55.399Z,16.86
2016-12-29T05:41:36.060Z,16.89
2016-12-29T05:42:16.685Z,16.86
2016-12-29T05:42:57.442Z,16.81
2016-12-29T05:43:38.069Z,16.88
2016-12-29T05:44:18.699Z,16.89
2016-12-29T05:44:59.396Z,16.89
2016-12-29T05:45:40.021Z,16.89
2016-12-29T05:46:20.658Z,16.86
2016-12-29T05:47:01.314Z,16.9
2016-12-29T05:47:41.938Z,16.88
2016-12-29T05:48:22.565Z,16.92
2016-12-29T05:49:03.192Z,16.89
2016-12-29T05:49:43.825Z,16.86
2016-12-29T05:50:24.453Z,16.86
2016-12-29T05:51:05.172Z,16.88
2016-12-29T05:51:45.799Z,16.81
2016-12-29T05:52:26.432Z,16.92
2016-12-29T05:53:07.103Z,16.85
2016-12-29T05:53:47.735Z,16.83
2016-12-29T05:54:28.362Z,16.81
2016-12-29T05:55:08.992Z,16.86
2016-12-29T05:55:49.614Z,16.86
2016-12-29T05:56:30.259Z,16.83
2016-12-29T05:57:10.878Z,16.81
2016-12-29T05:57:51.506Z,16.88
2016-12-29T05:58:32.191Z,16.86
2016-12-29T05:59:12.812Z,16.89
2016-12-29T05:59:53.454Z,16.88
2016-12-29T06:00:34.077Z,16.88
2016-12-29T06:01:14.719Z,16.86
2016-12-29T06:01:55.330Z,16.85
2016-12-29T06:02:35.964Z,16.89
2016-12-29T06:03:16.596Z,16.88
2016-12-29T06:03:57.230Z,16.8
2016-12-29T06:04:37.960Z,16.81
2016-12-29T06:05:18.602Z,16.88
2016-12-29T06:05:59.230Z,16.83
2016-12-29T06:06:39.874Z,16.88
2016-12-29T06:07:20.512Z,16.8
2016-12-29T06:08:01.155Z,16.8
2016-12-29T06:08:41.789Z,16.83
2016-12-29T06:09:22.539Z,16.86
2016-12-29T06:10:03.181Z,16.8
2016-12-29T06:10:43.819Z,16.81
2016-12-29T06:11:24.448Z,16.8
2016-12-29T06:12:05.078Z,16.78
2016-12-29T06:12:45.785Z,16.78
2016-12-29T06:13:26.419Z,16.77
2016-12-29T06:14:07.036Z,16.8
2016-12-29T06:14:47.664Z,16.83
2016-12-29T06:15:28.327Z,16.81
2016-12-29T06:16:08.972Z,16.8
2016-12-29T06:16:49.623Z,16.75
2016-12-29T06:17:30.347Z,16.78
2016-12-29T06:18:10.972Z,16.78
2016-12-29T06:18:51.602Z,16.8
2016-12-29T06:19:32.226Z,16.85
2016-12-29T06:20:12.928Z,16.78
2016-12-29T06:20:53.566Z,16.88
2016-12-29T06:21:34.202Z,16.81
2016-12-29T06:22:14.932Z,16.81
2016-12-29T06:22:55.565Z,16.83
2016-12-29T06:23:36.198Z,16.77
2016-12-29T06:24:16.823Z,16.78
2016-12-29T06:24:57.453Z,16.75
2016-12-29T06:25:38.087Z,16.85
2016-12-29T06:26:18.704Z,16.78
2016-12-29T06:26:59.338Z,16.75
2016-12-29T06:27:40.024Z,16.77
2016-12-29T06:28:20.646Z,16.81
2016-12-29T06:29:01.276Z,16.86
2016-12-29T06:29:41.964Z,16.81
2016-12-29T06:30:22.593Z,16.81
2016-12-29T06:31:03.228Z,16.86
2016-12-29T06:31:43.860Z,16.78
2016-12-29T06:32:24.494Z,16.78
2016-12-29T06:33:05.121Z,16.83
2016-12-29T06:33:45.756Z,16.81
2016-12-29T06:34:26.390Z,16.78
2016-12-29T06:35:07.012Z,16.8
2016-12-29T06:35:47.732Z,16.81
2016-12-29T06:36:28.379Z,16.75
2016-12-29T06:37:09.003Z,16.75
2016-12-29T06:37:49.639Z,16.8
2016-12-29T06:38:30.272Z,16.77
2016-12-29T06:39:10.897Z,16.74
2016-12-29T06:39:51.524Z,16.75
2016-12-29T06:40:32.148Z,16.81
2016-12-29T06:41:12.772Z,16.78
2016-12-29T06:41:53.420Z,16.78
2016-12-29T06:42:34.104Z,16.8
2016-12-29T06:43:14.731Z,16.77
2016-12-29T06:43:55.356Z,16.81
2016-12-29T06:44:35.991Z,16.81
2016-12-29T06:45:16.613Z,16.83
2016-12-29T06:45:57.247Z,16.83
2016-12-29T06:46:37.873Z,16.78
2016-12-29T06:47:18.520Z,16.8
2016-12-29T06:47:59.242Z,16.75
2016-12-29T06:48:39.869Z,16.8
2016-12-29T06:49:20.500Z,16.8
2016-12-29T06:50:01.126Z,16.83
2016-12-29T06:50:41.753Z,16.78
2016-12-29T06:51:22.379Z,16.75
2016-12-29T06:52:03.036Z,16.77
2016-12-29T06:52:43.660Z,16.81
2016-12-29T06:53:24.300Z,16.78
2016-12-29T06:54:04.950Z,16.8
2016-12-29T06:54:45.583Z,16.75
2016-12-29T06:55:26.203Z,16.74
2016-12-29T06:56:06.843Z,16.77
2016-12-29T06:56:47.493Z,16.75
2016-12-29T06:57:28.123Z,16.78
2016-12-29T06:58:08.753Z,16.77
2016-12-29T06:58:49.398Z,16.83
2016-12-29T06:59:30.027Z,16.73
2016-12-29T07:00:10.664Z,16.8
2016-12-29T07:00:51.287Z,16.75
2016-12-29T07:01:31.918Z,16.74
2016-12-29T07:02:12.545Z,16.77
2016-12-29T07:02:53.177Z,16.8
2016-12-29T07:03:33.800Z,16.78
2016-12-29T07:04:14.437Z,16.74
2016-12-29T07:04:55.061Z,16.75
2016-12-29T07:05:35.685Z,16.77
2016-12-29T07:06:16.354Z,16.74
2016-12-29T07:06:57.005Z,16.78
2016-12-29T07:07:37.637Z,16.77
2016-12-29T07:08:18.273Z,16.68
2016-12-29T07:08:58.942Z,16.67
2016-12-29T07:09:39.594Z,16.73
2016-12-29T07:10:20.224Z,16.67
2016-12-29T07:11:00.857Z,16.75
2016-12-29T07:11:41.483Z,16.77
2016-12-29T07:12:22.109Z,16.77
2016-12-29T07:13:02.770Z,16.74
2016-12-29T07:13:43.430Z,16.85
2016-12-29T07:14:24.065Z,16.78
2016-12-29T07:15:04.737Z,16.68
2016-12-29T07:15:45.394Z,16.78
2016-12-29T07:16:26.021Z,16.81
2016-12-29T07:17:06.681Z,16.68
2016-12-29T07:17:47.306Z,16.63
2016-12-29T07:18:27.936Z,16.68
2016-12-29T07:19:08.603Z,16.7
2016-12-29T07:19:49.236Z,16.68
2016-12-29T07:20:29.956Z,16.68
2016-12-29T07:21:10.602Z,16.67
2016-12-29T07:21:51.235Z,16.7
2016-12-29T07:22:31.867Z,16.68
2016-12-29T07:23:12.495Z,16.78
2016-12-29T07:23:53.118Z,16.73
2016-12-29T07:24:33.744Z,16.65
2016-12-29T07:25:14.394Z,16.67
2016-12-29T07:25:55.031Z,16.73
2016-12-29T07:26:35.660Z,16.65
2016-12-29T07:27:16.300Z,16.7
2016-12-29T07:27:56.936Z,16.68
2016-12-29T07:28:37.577Z,16.7
2016-12-29T07:29:18.265Z,16.7
2016-12-29T07:29:58.901Z,16.7
2016-12-29T07:30:39.543Z,16.63
2016-12-29T07:31:20.240Z,16.63
2016-12-29T07:32:00.865Z,16.73
2016-12-29T07:32:41.484Z,16.73
2016-12-29T07:33:22.158Z,16.6
2016-12-29T07:34:02.791Z,16.62
2016-12-29T07:34:43.415Z,16.68
2016-12-29T07:35:24.045Z,16.68
2016-12-29T07:36:04.683Z,16.71
2016-12-29T07:36:45.320Z,16.73
2016-12-29T07:37:25.946Z,16.68
2016-12-29T07:38:06.585Z,16.68
2016-12-29T07:38:47.227Z,16.67
2016-12-29T07:39:27.846Z,16.63
2016-12-29T07:40:08.473Z,16.73
2016-12-29T07:40:49.102Z,16.65
2016-12-29T07:41:29.734Z,16.71
2016-12-29T07:42:10.380Z,16.68
2016-12-29T07:42:51.009Z,16.7
2016-12-29T07:43:31.637Z,16.62
2016-12-29T07:44:12.274Z,16.74
2016-12-29T07:44:52.995Z,16.65
2016-12-29T07:45:33.632Z,16.67
2016-12-29T07:46:14.264Z,16.62
2016-12-29T07:46:54.886Z,16.59
2016-12-29T07:47:35.524Z,16.63
2016-12-29T07:48:16.156Z,16.58
2016-12-29T07:48:56.805Z,16.63
2016-12-29T07:49:37.428Z,16.7
2016-12-29T07:50:18.065Z,16.56
2016-12-29T07:50:58.697Z,16.63
2016-12-29T07:51:39.319Z,16.59
2016-12-29T07:52:19.939Z,16.6
2016-12-29T07:53:00.572Z,16.67
2016-12-29T07:53:41.206Z,16.56
2016-12-29T07:54:21.846Z,16.65
2016-12-29T07:55:02.458Z,16.65
2016-12-29T07:55:43.098Z,16.67
2016-12-29T07:56:23.726Z,16.65
2016-12-29T07:57:04.354Z,16.67
2016-12-29T07:57:45.035Z,16.56
2016-12-29T07:58:25.695Z,16.63
2016-12-29T07:59:06.373Z,16.65
2016-12-29T07:59:47.118Z,16.65
2016-12-29T08:00:27.745Z,16.67
2016-12-29T08:01:08.376Z,16.6
2016-12-29T08:01:49.047Z,16.58
2016-12-29T08:02:29.679Z,16.62
2016-12-29T08:03:10.314Z,16.58
2016-12-29T08:03:50.972Z,16.63
2016-12-29T08:04:31.600Z,16.62
2016-12-29T08:05:12.247Z,16.65
2016-12-29T08:05:52.971Z,16.62
2016-12-29T08:06:33.599Z,16.6
2016-12-29T08:07:14.254Z,16.63
2016-12-29T08:07:54.944Z,16.7
2016-12-29T08:08:35.571Z,16.71
2016-12-29T08:09:16.216Z,16.62
2016-12-29T08:09:56.931Z,16.67
2016-12-29T08:10:37.565Z,16.65
2016-12-29T08:11:18.198Z,16.65
2016-12-29T08:11:58.862Z,16.73
2016-12-29T08:12:39.501Z,16.7
2016-12-29T08:13:20.136Z,16.68
2016-12-29T08:14:00.835Z,16.65
2016-12-29T08:14:41.479Z,16.59
2016-12-29T08:15:22.105Z,16.67
2016-12-29T08:16:02.730Z,16.62
2016-12-29T08:16:43.379Z,16.71
2016-12-29T08:17:23.999Z,16.71
2016-12-29T08:18:04.644Z,16.7
2016-12-29T08:18:45.268Z,16.65
2016-12-29T08:19:25.898Z,16.71
2016-12-29T08:20:06.544Z,16.59
2016-12-29T08:20:47.168Z,16.56
2016-12-29T08:21:27.793Z,16.7
2016-12-29T08:22:08.422Z,16.63
2016-12-29T08:22:49.047Z,16.73
2016-12-29T08:23:29.675Z,16.59
2016-12-29T08:24:10.316Z,16.71
2016-12-29T08:24:50.944Z,16.58
2016-12-29T08:25:31.564Z,16.59
2016-12-29T08:26:12.190Z,16.65
2016-12-29T08:26:52.882Z,16.59
2016-12-29T08:27:33.549Z,16.58
2016-12-29T08:28:14.170Z,16.68
2016-12-29T08:28:54.797Z,16.59
2016-12-29T08:29:35.421Z,16.53
2016-12-29T08:30:16.093Z,16.59
2016-12-29T08:30:56.786Z,16.56
2016-12-29T08:31:37.412Z,16.59
2016-12-29T08:32:18.033Z,16.55
2016-12-29T08:32:58.743Z,16.58
2016-12-29T08:33:39.371Z,16.55
2016-12-29T08:34:20.011Z,16.56
2016-12-29T08:35:00.639Z,16.55
2016-12-29T08:35:41.268Z,16.62
2016-12-29T08:36:21.905Z,16.56
2016-12-29T08:37:02.524Z,16.59
2016-12-29T08:37:43.156Z,16.6
2016-12-29T08:38:23.783Z,16.62
2016-12-29T08:39:04.425Z,16.56
2016-12-29T08:39:45.055Z,16.6
2016-12-29T08:40:25.680Z,16.59
2016-12-29T08:41:06.317Z,16.53
2016-12-29T08:41:46.949Z,16.6
2016-12-29T08:42:27.597Z,16.58
2016-12-29T08:43:08.297Z,16.62
2016-12-29T08:43:48.928Z,16.58
2016-12-29T08:44:29.560Z,16.67
2016-12-29T08:45:10.239Z,16.67
2016-12-29T08:45:50.871Z,16.6